Time;durP1;ratioP1;P1;durP2;ratioP2;P2;SDS_P1;SDS_P2;PMS_P1;PMS_P2;Temp;Humidity;BMP_temperature;BMP_pressure;BME280_temperature;BME280_humidity;BME280_pressure;Samples;Min_cycle;Max_cycle;Signal;HPM_P1;HPM_P2
2023/05/07 00:01:31;;;;;;;17.27;11.48;;;;;;;19.17;81.51;100769.91;5012418;28;20053;-76
2023/05/07 00:03:59;;;;;;;16.00;11.50;;;;;;;19.21;82.04;100772.81;5011979;28;20064;-76
2023/05/07 00:06:28;;;;;;;18.13;11.23;;;;;;;19.23;82.46;100772.47;5012546;28;20042;-76
2023/05/07 00:08:57;;;;;;;17.02;11.35;;;;;;;19.15;83.22;100766.66;5012237;28;20069;-76
2023/05/07 00:11:25;;;;;;;18.17;12.10;;;;;;;19.01;84.60;100766.84;5012337;28;20048;-76
2023/05/07 00:13:54;;;;;;;21.45;12.10;;;;;;;18.91;85.04;100764.44;5012473;28;20054;-76
2023/05/07 00:16:22;;;;;;;18.42;12.38;;;;;;;18.86;85.60;100762.66;5012265;28;20523;-76
2023/05/07 00:18:50;;;;;;;19.38;13.52;;;;;;;18.90;86.52;100749.78;5011790;28;20377;-76
2023/05/07 00:21:18;;;;;;;17.52;12.45;;;;;;;18.83;86.16;100760.56;5011530;28;20045;-76
2023/05/07 00:23:46;;;;;;;17.77;12.43;;;;;;;18.83;86.35;100756.97;5012093;28;20053;-76
2023/05/07 00:26:14;;;;;;;21.38;13.70;;;;;;;18.61;87.99;100758.84;5012266;28;20046;-76
2023/05/07 00:28:44;;;;;;;19.10;13.68;;;;;;;18.51;88.64;100755.28;5012225;28;20042;-76
2023/05/07 00:31:12;;;;;;;20.15;13.50;;;;;;;18.60;88.55;100759.97;5011296;28;20050;-76
2023/05/07 00:33:40;;;;;;;20.92;14.32;;;;;;;18.58;88.04;100763.06;5001159;28;20508;-76
2023/05/07 00:36:08;;;;;;;19.40;14.55;;;;;;;18.56;88.29;100753.50;4992586;28;20461;-76
2023/05/07 00:38:35;;;;;;;19.55;14.00;;;;;;;18.53;88.66;100766.84;4991269;28;20772;-76
2023/05/07 00:41:03;;;;;;;21.13;15.05;;;;;;;18.50;88.95;100761.97;5004207;28;20057;-76
2023/05/07 00:43:32;;;;;;;19.67;14.13;;;;;;;18.42;90.00;100762.78;4991433;28;20042;-76
2023/05/07 00:46:00;;;;;;;22.27;15.75;;;;;;;18.40;89.87;100759.56;5007552;28;20050;-76
2023/05/07 00:48:28;;;;;;;21.83;15.32;;;;;;;18.43;89.56;100764.41;5012179;28;20041;-76
2023/05/07 00:50:56;;;;;;;21.73;14.27;;;;;;;18.44;89.42;100760.53;5010591;28;20046;-76
2023/05/07 00:53:25;;;;;;;20.13;14.32;;;;;;;18.36;89.74;100756.63;5012092;28;20049;-76
2023/05/07 00:55:53;;;;;;;22.38;15.20;;;;;;;18.44;89.33;100768.00;5011935;28;20414;-76
2023/05/07 00:58:21;;;;;;;21.27;14.73;;;;;;;18.41;89.49;100755.63;5012072;28;20046;-76
2023/05/07 01:00:49;;;;;;;23.08;15.98;;;;;;;18.52;88.84;100756.91;5010530;28;20046;-76
2023/05/07 01:03:17;;;;;;;23.63;15.40;;;;;;;18.54;88.87;100759.34;5011982;28;20050;-76
2023/05/07 01:05:48;;;;;;;23.27;15.68;;;;;;;18.55;89.05;100760.97;5011995;28;20050;-76
2023/05/07 01:08:17;;;;;;;20.15;14.73;;;;;;;18.49;89.07;100760.34;4994629;28;20042;-76
2023/05/07 01:10:46;;;;;;;22.42;14.73;;;;;;;18.45;89.57;100759.38;5011425;28;20396;-76
2023/05/07 01:13:15;;;;;;;20.48;14.68;;;;;;;18.45;89.19;100756.59;4994286;28;20436;-76
2023/05/07 01:15:43;;;;;;;21.65;14.50;;;;;;;18.40;89.47;100751.25;5011885;28;20042;-76
2023/05/07 01:18:11;;;;;;;19.70;14.27;;;;;;;18.41;89.84;100750.09;4990743;28;20038;-76
2023/05/07 01:20:40;;;;;;;19.48;14.30;;;;;;;18.36;89.68;100748.31;4992228;28;20504;-76
2023/05/07 01:23:10;;;;;;;23.42;15.50;;;;;;;18.37;89.78;100749.13;4989137;28;20145;-76
2023/05/07 01:25:38;;;;;;;21.23;14.75;;;;;;;18.35;89.77;100748.63;5010607;28;20053;-76
2023/05/07 01:28:06;;;;;;;22.92;16.23;;;;;;;18.36;90.36;100747.50;5010635;28;20388;-76
2023/05/07 01:30:42;;;;;;;23.17;15.93;;;;;;;18.23;90.58;100749.31;5013996;28;20525;-76
2023/05/07 01:33:13;;;;;;;20.70;15.27;;;;;;;18.20;91.45;100733.34;5014938;28;20065;-76
2023/05/07 01:35:45;;;;;;;20.33;14.40;;;;;;;18.17;91.71;100743.13;5015388;28;20069;-76
2023/05/07 01:38:13;;;;;;;22.25;16.05;;;;;;;18.15;91.94;100739.88;5014202;28;20038;-76
2023/05/07 01:40:41;;;;;;;23.88;15.80;;;;;;;18.12;92.08;100726.69;4997947;28;20053;-76
2023/05/07 01:43:10;;;;;;;22.00;15.90;;;;;;;18.23;91.41;100739.03;4997592;28;20053;-76
2023/05/07 01:45:40;;;;;;;23.38;15.70;;;;;;;18.19;91.74;100745.56;5010368;28;20050;-76
2023/05/07 01:48:11;;;;;;;22.90;15.60;;;;;;;18.12;91.76;100741.34;4995712;28;20054;-76
2023/05/07 01:50:39;;;;;;;23.20;15.70;;;;;;;18.05;92.54;100748.50;4995368;28;20122;-76
2023/05/07 01:53:07;;;;;;;25.88;16.48;;;;;;;17.97;93.04;100744.56;4995345;28;20401;-76
2023/05/07 01:55:36;;;;;;;22.85;16.67;;;;;;;17.94;93.36;100748.81;4995433;28;20046;-76
2023/05/07 01:58:04;;;;;;;23.50;16.92;;;;;;;17.99;93.20;100751.41;4994661;28;20053;-77
2023/05/07 02:00:33;;;;;;;27.05;16.45;;;;;;;17.88;93.87;100744.59;4994189;28;20043;-77
2023/05/07 02:03:01;;;;;;;22.85;15.63;;;;;;;17.89;94.36;100743.44;4995156;28;20042;-77
2023/05/07 02:05:44;;;;;;;23.20;16.23;;;;;;;17.93;93.24;100747.19;4994061;28;20504;-77
2023/05/07 02:08:22;;;;;;;22.58;15.93;;;;;;;17.94;92.99;100746.03;4979513;28;20045;-77
2023/05/07 02:10:51;;;;;;;21.55;15.73;;;;;;;17.92;93.04;100740.03;4995044;28;20065;-77
2023/05/07 02:13:19;;;;;;;22.48;16.02;;;;;;;17.91;94.32;100746.72;4994739;28;20039;-77
2023/05/07 02:15:50;;;;;;;23.48;16.05;;;;;;;17.84;94.31;100743.63;5010176;28;20053;-77
2023/05/07 02:18:18;;;;;;;21.25;15.55;;;;;;;17.81;93.81;100749.78;4994123;28;20061;-77
2023/05/07 02:20:46;;;;;;;25.73;16.42;;;;;;;17.84;93.51;100749.16;4993768;28;20504;-77
2023/05/07 02:23:14;;;;;;;23.52;16.08;;;;;;;17.82;93.72;100751.41;4993655;28;20046;-77
2023/05/07 02:25:42;;;;;;;23.75;16.10;;;;;;;18.00;92.93;100750.28;4995021;28;20046;-77
2023/05/07 02:28:10;;;;;;;23.35;16.67;;;;;;;17.92;93.15;100737.25;5010232;28;20058;-77
2023/05/07 02:31:00;;;;;;;24.83;17.23;;;;;;;17.92;92.87;100745.56;4994470;28;20066;-77
2023/05/07 02:33:29;;;;;;;22.13;16.38;;;;;;;17.84;93.34;100744.41;4993580;28;20046;-77
2023/05/07 02:36:08;;;;;;;23.50;15.85;;;;;;;17.77;94.32;100732.19;4993647;28;20062;-77
2023/05/07 02:38:41;;;;;;;24.35;16.88;;;;;;;17.72;95.37;100735.94;4993816;28;20508;-77
2023/05/07 02:41:10;;;;;;;24.83;15.93;;;;;;;17.71;95.39;100740.66;5008645;28;20054;-77
2023/05/07 02:43:38;;;;;;;23.73;17.10;;;;;;;17.70;95.72;100743.78;4993102;28;20493;-77
2023/05/07 02:46:07;;;;;;;26.48;16.73;;;;;;;17.69;95.08;100742.16;4993242;28;20051;-77
2023/05/07 02:48:39;;;;;;;25.27;17.20;;;;;;;17.58;95.93;100738.88;4993436;28;20049;-77
2023/05/07 02:51:07;;;;;;;25.27;17.08;;;;;;;17.55;96.45;100740.31;4992621;28;20057;-77
2023/05/07 02:53:36;;;;;;;24.25;17.67;;;;;;;17.60;97.08;100747.69;4993259;28;20045;-77
2023/05/07 02:56:05;;;;;;;26.42;17.27;;;;;;;17.60;96.51;100747.69;4994300;28;20046;-77
2023/05/07 02:58:33;;;;;;;25.70;17.02;;;;;;;17.53;97.44;100748.16;4994450;28;20053;-77
2023/05/07 03:01:02;;;;;;;24.33;16.92;;;;;;;17.55;97.08;100747.84;4992736;28;20485;-77
2023/05/07 03:03:38;;;;;;;22.25;16.05;;;;;;;17.58;96.44;100753.53;5009250;28;20401;-77
2023/05/07 03:06:06;;;;;;;24.60;17.17;;;;;;;17.59;96.18;100746.03;4994080;28;20065;-77
2023/05/07 03:08:34;;;;;;;23.60;17.02;;;;;;;17.52;96.50;100743.75;4993940;28;20046;-77
2023/05/07 03:11:02;;;;;;;23.73;16.55;;;;;;;17.55;96.63;100761.66;4992055;28;20042;-77
2023/05/07 03:13:30;;;;;;;24.30;17.17;;;;;;;17.46;96.64;100745.84;4994244;28;20057;-77
2023/05/07 03:15:58;;;;;;;26.73;17.27;;;;;;;17.48;96.70;100753.00;4994416;28;20046;-77
2023/05/07 03:18:26;;;;;;;26.85;17.80;;;;;;;17.48;97.14;100755.78;4993920;28;20481;-77
2023/05/07 03:20:55;;;;;;;23.90;17.05;;;;;;;17.53;96.53;100750.09;4993697;28;20061;-77
2023/05/07 03:23:23;;;;;;;24.60;15.93;;;;;;;17.49;97.50;100754.66;4992461;28;20057;-77
2023/05/07 03:25:51;;;;;;;25.50;17.55;;;;;;;17.46;97.64;100745.84;4992700;28;20050;-77
2023/05/07 03:28:19;;;;;;;25.95;17.23;;;;;;;17.42;98.46;100744.88;4993868;28;20461;-77
2023/05/07 03:30:53;;;;;;;27.60;17.83;;;;;;;17.33;98.41;100741.28;4991881;28;20408;-77
2023/05/07 03:33:21;;;;;;;22.85;15.57;;;;;;;17.36;98.91;100746.19;4993751;28;20301;-77
2023/05/07 03:35:49;;;;;;;23.85;16.23;;;;;;;17.39;97.98;100739.97;4992124;28;20386;-77
2023/05/07 03:38:22;;;;;;;25.20;17.25;;;;;;;17.41;98.35;100729.41;4993613;28;20405;-77
2023/05/07 03:40:50;;;;;;;26.08;17.23;;;;;;;17.43;97.80;100737.38;4988571;28;20042;-77
2023/05/07 03:43:18;;;;;;;24.23;16.70;;;;;;;17.45;97.18;100738.69;4989087;28;20046;-78
2023/05/07 03:45:51;;;;;;;23.77;16.92;;;;;;;17.52;97.17;100735.47;4988737;28;20058;-77
2023/05/07 03:48:24;;;;;;;25.17;16.35;;;;;;;17.48;98.01;100736.41;4989083;28;20083;-78
2023/05/07 03:50:56;;;;;;;23.75;16.55;;;;;;;17.41;98.56;100743.22;4977961;28;20065;-78
2023/05/07 03:53:27;;;;;;;24.20;16.65;;;;;;;17.38;99.17;100743.06;4992199;28;20050;-78
2023/05/07 03:55:55;;;;;;;25.80;17.00;;;;;;;17.58;98.29;100741.63;4992242;28;20046;-78
2023/05/07 03:58:24;;;;;;;27.98;18.23;;;;;;;17.61;97.52;100741.00;4991960;28;20046;-78
2023/05/07 04:00:54;;;;;;;25.88;17.02;;;;;;;17.60;97.87;100744.91;4991810;28;20042;-77
2023/05/07 04:03:27;;;;;;;27.85;18.08;;;;;;;17.59;97.25;100734.97;4975793;28;20486;-78
2023/05/07 04:05:58;;;;;;;28.35;18.48;;;;;;;17.66;96.67;100737.25;5008427;28;20485;-78
2023/05/07 04:08:26;;;;;;;24.52;17.00;;;;;;;17.70;96.69;100738.25;4991933;28;20042;-78
2023/05/07 04:10:58;;;;;;;27.65;16.75;;;;;;;17.72;96.23;100744.25;4992465;28;20050;-78
2023/05/07 04:13:31;;;;;;;25.88;17.38;;;;;;;17.83;94.51;100747.50;4991885;28;20046;-78
2023/05/07 04:16:03;;;;;;;24.20;16.38;;;;;;;17.96;94.16;100759.56;4991826;28;20042;-78
2023/05/07 04:18:31;;;;;;;25.50;17.42;;;;;;;17.88;95.68;100752.88;4975787;28;20054;-78
2023/05/07 04:21:00;;;;;;;25.90;16.75;;;;;;;17.88;94.68;100754.84;5007555;28;20485;-78
2023/05/07 04:23:29;;;;;;;22.17;15.88;;;;;;;17.91;95.42;100755.00;4991923;28;20061;-78
2023/05/07 04:26:01;;;;;;;21.80;16.45;;;;;;;17.92;94.89;100769.66;4991580;28;20051;-78
2023/05/07 04:28:34;;;;;;;25.80;16.80;;;;;;;17.77;94.16;100760.72;5007768;28;20054;-78
2023/05/07 04:31:03;;;;;;;26.42;16.77;;;;;;;17.75;93.31;100764.94;4992497;28;20061;-78
2023/05/07 04:33:33;;;;;;;26.15;17.67;;;;;;;17.73;91.01;100760.53;4994271;28;20489;-79
2023/05/07 04:36:03;;;;;;;27.75;17.83;;;;;;;17.69;90.38;100754.03;5008196;28;20042;-79
2023/05/07 04:38:35;;;;;;;33.53;21.10;;;;;;;17.52;90.05;100754.81;4991279;28;20050;-78
2023/05/07 04:41:06;;;;;;;32.72;21.67;;;;;;;17.76;88.80;100770.16;4992321;28;20054;-78
2023/05/07 04:43:38;;;;;;;30.88;21.58;;;;;;;17.74;88.87;100772.41;4991432;28;20062;-78
2023/05/07 04:46:06;;;;;;;33.05;20.77;;;;;;;17.78;88.26;100778.13;5003830;28;20050;-78
2023/05/07 04:48:35;;;;;;;32.75;20.15;;;;;;;17.80;88.52;100779.41;5010910;28;20061;-79
2023/05/07 04:51:06;;;;;;;30.40;18.10;;;;;;;17.86;87.79;100774.56;4993999;28;20046;-78
2023/05/07 04:53:34;;;;;;;29.50;18.85;;;;;;;17.91;87.34;100779.94;5012137;28;20078;-79
2023/05/07 04:56:02;;;;;;;29.65;19.60;;;;;;;18.05;87.65;100781.72;5010628;28;20049;-79
2023/05/07 04:58:40;;;;;;;32.40;19.63;;;;;;;18.11;87.16;100769.38;5009948;28;20046;-79
2023/05/07 05:01:08;;;;;;;28.13;18.70;;;;;;;18.24;87.62;100786.97;5010289;28;20054;-80
2023/05/07 05:03:39;;;;;;;29.92;18.33;;;;;;;18.37;87.64;100793.44;5012669;28;20042;-79
2023/05/07 05:06:08;;;;;;;29.38;17.73;;;;;;;18.25;87.85;100786.63;4997929;28;20491;-80
2023/05/07 05:08:36;;;;;;;26.10;17.55;;;;;;;18.03;88.90;100784.81;4998225;28;20069;-78
2023/05/07 05:11:05;;;;;;;31.85;18.25;;;;;;;18.49;86.78;100785.31;4998472;28;20046;-82
2023/05/07 05:13:35;;;;;;;28.35;17.35;;;;;;;18.95;85.44;100804.22;4998438;28;20054;-82
2023/05/07 05:16:10;;;;;;;25.95;16.73;;;;;;;19.06;85.51;100819.38;4998451;28;20073;-83
2023/05/07 05:18:39;;;;;;;26.20;18.35;;;;;;;19.08;84.40;100810.75;5015952;28;20046;-83
2023/05/07 05:21:08;;;;;;;22.33;15.75;;;;;;;19.24;84.24;100816.53;4998507;28;20041;-81
2023/05/07 05:23:37;;;;;;;23.88;15.52;;;;;;;19.40;83.67;100827.09;4998819;28;20714;-82
2023/05/07 05:26:05;;;;;;;24.05;16.10;;;;;;;19.46;83.40;100822.97;5014774;28;20060;-82
2023/05/07 05:28:34;;;;;;;20.25;15.25;;;;;;;19.53;81.94;100826.03;4997654;28;20049;-82
2023/05/07 05:31:05;;;;;;;21.85;15.52;;;;;;;19.78;81.06;100831.75;5013844;28;20389;-82
2023/05/07 05:33:35;;;;;;;23.15;15.48;;;;;;;19.76;80.52;100831.28;5005105;28;20489;-82
2023/05/07 05:36:05;;;;;;;24.02;16.23;;;;;;;19.88;80.02;100830.53;4994899;28;20528;-82
2023/05/07 05:38:34;;;;;;;24.40;16.23;;;;;;;19.88;79.28;100830.53;5010403;28;20073;-82
2023/05/07 05:41:02;;;;;;;24.17;16.42;;;;;;;19.98;77.65;100823.78;4996383;28;20054;-82
2023/05/07 05:43:30;;;;;;;23.85;15.85;;;;;;;20.00;77.58;100821.50;5001805;28;20053;-82
2023/05/07 05:46:00;;;;;;;28.77;16.60;;;;;;;20.04;77.39;100816.88;5014167;28;20057;-83
2023/05/07 05:48:29;;;;;;;23.23;15.38;;;;;;;20.21;76.93;100823.44;5013777;28;20037;-83
2023/05/07 05:51:00;;;;;;;23.75;15.52;;;;;;;20.17;76.23;100819.72;5014694;28;20507;-82
2023/05/07 05:53:28;;;;;;;24.85;15.63;;;;;;;20.13;76.11;100825.16;5014692;28;20038;-83
2023/05/07 05:55:55;;;;;;;23.50;15.77;;;;;;;20.32;75.20;100819.09;4997819;28;20030;-83
2023/05/07 05:58:24;;;;;;;25.20;15.63;;;;;;;20.49;75.94;100822.88;4997427;28;20042;-82
2023/05/07 06:00:58;;;;;;;23.75;15.50;;;;;;;20.48;76.04;100829.59;4994380;28;20038;-83
2023/05/07 06:03:28;;;;;;;23.17;15.13;;;;;;;20.45;76.00;100827.50;4995777;28;20057;-82
2023/05/07 06:06:00;;;;;;;21.95;15.43;;;;;;;20.51;75.20;100834.47;4996809;28;20042;-82
2023/05/07 06:08:30;;;;;;;24.05;16.27;;;;;;;20.54;74.65;100831.81;4996483;28;20038;-82
2023/05/07 06:10:59;;;;;;;21.85;14.20;;;;;;;20.56;75.29;100837.03;4984943;28;20409;-82
2023/05/07 06:13:29;;;;;;;26.20;15.98;;;;;;;20.68;74.72;100834.28;5012000;28;20056;-82
2023/05/07 06:15:57;;;;;;;21.58;15.05;;;;;;;20.75;75.70;100830.13;4995886;28;20504;-83
2023/05/07 06:18:24;;;;;;;21.20;14.70;;;;;;;20.85;74.27;100838.06;5013445;28;20046;-82
2023/05/07 06:20:54;;;;;;;20.55;14.57;;;;;;;20.85;73.92;100838.06;5012869;28;20045;-82
2023/05/07 06:23:26;;;;;;;20.98;15.35;;;;;;;20.89;73.27;100838.19;4996092;28;20054;-82
2023/05/07 06:25:54;;;;;;;20.00;14.77;;;;;;;21.07;73.50;100838.81;4997313;28;20046;-82
2023/05/07 06:28:27;;;;;;;20.23;14.73;;;;;;;21.09;73.24;100842.06;4992769;28;20041;-82
2023/05/07 06:30:55;;;;;;;22.42;15.32;;;;;;;20.93;73.16;100834.38;5012440;28;20311;-82
2023/05/07 06:33:23;;;;;;;21.98;15.02;;;;;;;21.17;72.82;100838.34;5013371;28;20053;-82
2023/05/07 06:35:51;;;;;;;19.83;14.30;;;;;;;21.47;71.12;100826.19;5010661;28;20053;-82
2023/05/07 06:38:19;;;;;;;20.02;14.32;;;;;;;;;;5013057;28;20400;-83
2023/05/07 06:40:49;;;;;;;22.33;14.43;;;;;;;21.45;70.10;100847.97;4979815;28;20056;-82
2023/05/07 06:43:27;;;;;;;19.90;14.07;;;;;;;21.51;70.59;100854.13;4996381;28;20401;-83
2023/05/07 06:46:37;;;;;;;20.52;14.02;;;;;;;21.43;71.02;100851.13;4995389;28;20064;-83
2023/05/07 06:49:07;;;;;;;19.80;13.77;;;;;;;21.37;70.70;100840.56;4996275;28;20460;-78
2023/05/07 06:51:35;;;;;;;20.55;14.07;;;;;;;21.14;71.62;100841.84;4995847;28;20045;-78
2023/05/07 06:54:05;;;;;;;19.10;13.65;;;;;;;21.25;71.16;100846.94;4995180;28;20046;-77
2023/05/07 06:56:35;;;;;;;19.42;13.98;;;;;;;21.41;71.97;100847.06;4996091;28;20042;-77
2023/05/07 06:59:06;;;;;;;19.10;14.50;;;;;;;21.71;70.52;100839.28;5011714;28;20049;-78
2023/05/07 07:01:39;;;;;;;20.52;14.52;;;;;;;21.62;71.11;100838.59;4978775;28;20050;-78
2023/05/07 07:04:08;;;;;;;20.92;13.18;;;;;;;21.61;69.87;100848.09;4994578;28;20052;-78
2023/05/07 07:06:38;;;;;;;20.08;13.73;;;;;;;21.59;69.72;100850.41;5011283;28;20739;-77
2023/05/07 07:09:10;;;;;;;19.50;13.10;;;;;;;21.61;70.11;100853.69;4991460;28;20065;-79
2023/05/07 07:12:04;;;;;;;20.73;13.52;;;;;;;21.53;69.98;100844.28;5325996;23;20058;-79
2023/05/07 07:14:33;;;;;;;19.38;13.60;;;;;;;21.59;70.10;100842.06;4982788;28;20049;-81
2023/05/07 07:17:01;;;;;;;19.00;12.07;;;;;;;21.71;69.50;100849.63;5003184;28;20047;-81
2023/05/07 07:19:29;;;;;;;22.60;13.27;;;;;;;21.77;69.73;100847.41;4989197;28;20050;-78
2023/05/07 07:21:58;;;;;;;22.58;14.35;;;;;;;21.85;70.50;100832.56;4992995;28;20046;-79
2023/05/07 07:24:27;;;;;;;23.00;14.10;;;;;;;22.18;69.37;100845.44;4989063;28;20047;-64
2023/05/07 07:26:59;;;;;;;21.83;14.50;;;;;;;22.29;69.09;100841.00;4990115;28;20046;-64
2023/05/07 07:29:27;;;;;;;21.35;13.75;;;;;;;22.41;68.51;100847.69;4991742;28;20061;-64
2023/05/07 07:31:56;;;;;;;18.75;12.90;;;;;;;22.37;68.35;100833.66;4991603;28;20046;-64
2023/05/07 07:34:24;;;;;;;16.80;12.35;;;;;;;22.24;65.70;100837.66;4979858;28;20059;-64
2023/05/07 07:36:52;;;;;;;18.58;12.77;;;;;;;22.37;66.57;100833.66;4972287;28;20058;-64
2023/05/07 07:39:20;;;;;;;18.90;12.90;;;;;;;22.44;66.38;100844.22;4971934;28;20046;-64
2023/05/07 07:41:51;;;;;;;20.25;13.52;;;;;;;22.72;66.67;100834.22;4971695;28;20042;-64
2023/05/07 07:44:20;;;;;;;20.67;13.48;;;;;;;22.72;66.22;100834.22;4973249;28;20508;-63
2023/05/07 07:46:53;;;;;;;19.40;13.07;;;;;;;22.72;65.46;100823.06;4977620;28;20050;-64
2023/05/07 07:49:23;;;;;;;20.63;12.27;;;;;;;22.69;65.18;100839.34;4988634;28;20054;-64
2023/05/07 07:51:51;;;;;;;20.00;14.05;;;;;;;22.76;66.98;100832.31;4987601;28;20063;-64
2023/05/07 07:54:22;;;;;;;20.83;13.85;;;;;;;22.74;67.69;100843.84;4971583;28;20051;-64
2023/05/07 07:56:49;;;;;;;20.88;13.88;;;;;;;22.59;66.93;100839.88;4970401;28;20054;-64
2023/05/07 07:59:18;;;;;;;16.92;12.88;;;;;;;22.67;67.06;100843.66;4981130;28;20049;-64
2023/05/07 08:01:50;;;;;;;20.58;13.52;;;;;;;22.84;66.91;100847.28;4989182;28;20050;-64
2023/05/07 08:04:21;;;;;;;17.05;12.63;;;;;;;22.91;66.38;100851.06;4990943;28;20054;-64
2023/05/07 08:06:59;;;;;;;17.73;12.55;;;;;;;23.01;67.69;100852.50;4975781;28;20058;-64
2023/05/07 08:09:40;;;;;;;16.30;12.48;;;;;;;23.16;67.88;100850.09;4990609;28;20081;-64
2023/05/07 08:12:09;;;;;;;17.88;12.27;;;;;;;23.16;66.37;100858.47;4992887;28;20050;-64
2023/05/07 08:14:38;;;;;;;18.48;12.20;;;;;;;23.17;63.77;100848.94;4992143;28;20046;-64
2023/05/07 08:17:09;;;;;;;18.00;12.60;;;;;;;23.16;64.15;100859.28;5012527;28;20053;-64
2023/05/07 08:19:38;;;;;;;17.90;12.32;;;;;;;23.21;63.69;100853.44;4985154;28;20057;-64
2023/05/07 08:22:09;;;;;;;19.63;12.48;;;;;;;23.39;63.86;100855.88;5009267;28;20056;-64
2023/05/07 08:24:37;;;;;;;16.80;12.20;;;;;;;23.54;62.07;100857.03;4994751;28;20046;-64
2023/05/07 08:27:05;;;;;;;16.50;11.57;;;;;;;23.57;62.02;100867.50;4993749;28;20416;-64
2023/05/07 08:29:33;;;;;;;16.58;11.30;;;;;;;23.55;62.41;100874.63;4993817;28;20046;-64
2023/05/07 08:32:00;;;;;;;19.70;12.00;;;;;;;23.59;62.14;100865.13;4994070;28;20374;-64
2023/05/07 08:34:28;;;;;;;16.23;12.30;;;;;;;23.46;63.51;100867.22;4994103;28;20068;-64
2023/05/07 08:37:02;;;;;;;19.83;12.27;;;;;;;23.32;61.63;100866.88;4994410;28;20046;-64
2023/05/07 08:39:35;;;;;;;15.40;10.50;;;;;;;23.57;61.29;100870.28;4993004;28;20054;-64
2023/05/07 08:42:06;;;;;;;18.50;11.55;;;;;;;23.59;60.46;100870.72;4994307;28;20046;-64
2023/05/07 08:44:35;;;;;;;15.82;11.23;;;;;;;23.66;60.56;100869.28;4993130;28;20062;-64
2023/05/07 08:47:07;;;;;;;19.23;12.30;;;;;;;23.72;59.72;100865.03;4983027;28;20499;-64
2023/05/07 08:49:36;;;;;;;15.50;11.45;;;;;;;23.80;60.09;100863.22;4994009;28;20037;-63
2023/05/07 08:52:05;;;;;;;17.17;12.10;;;;;;;23.97;60.16;100867.56;4993903;28;20053;-64
2023/05/07 08:54:37;;;;;;;15.13;11.13;;;;;;;24.05;59.32;100866.53;4991171;28;20054;-63
2023/05/07 08:57:07;;;;;;;20.35;12.88;;;;;;;23.83;58.02;100863.28;4990750;28;20396;-64
2023/05/07 08:59:36;;;;;;;19.38;12.63;;;;;;;23.98;59.93;100863.59;4990173;28;20156;-64
2023/05/07 09:02:08;;;;;;;16.65;11.20;;;;;;;24.04;59.61;100867.72;5009789;28;20053;-63
2023/05/07 09:04:37;;;;;;;19.92;11.75;;;;;;;24.35;58.43;100859.63;4993473;28;20061;-80
2023/05/07 09:07:05;;;;;;;18.92;12.57;;;;;;;24.38;59.18;100862.47;4977666;28;20041;-80
2023/05/07 09:09:38;;;;;;;18.47;13.07;;;;;;;24.43;59.40;100861.38;4978251;28;20506;-80
2023/05/07 09:12:07;;;;;;;14.32;11.48;;;;;;;24.59;58.19;100860.47;4978055;28;20062;-80
2023/05/07 09:14:36;;;;;;;17.88;12.32;;;;;;;24.79;57.97;100861.25;4961508;28;20057;-80
2023/05/07 09:17:05;;;;;;;17.88;11.48;;;;;;;24.77;55.84;100863.59;4961628;28;20046;-80
2023/05/07 09:19:33;;;;;;;15.38;11.10;;;;;;;24.46;54.41;100862.63;4958459;28;20050;-80
2023/05/07 09:22:05;;;;;;;15.93;10.98;;;;;;;24.34;56.25;100853.19;4974934;28;20046;-80
2023/05/07 09:24:50;;;;;;;17.55;10.80;;;;;;;24.75;56.65;100851.97;4974140;28;20046;-80
2023/05/07 09:27:21;;;;;;;15.80;10.77;;;;;;;24.86;56.05;100855.00;4977785;28;20049;-81
2023/05/07 09:29:50;;;;;;;17.27;11.65;;;;;;;24.94;56.12;100851.94;4962262;28;20128;-81
2023/05/07 09:32:18;;;;;;;14.82;11.27;;;;;;;25.03;55.26;100857.31;4974618;28;20054;-80
2023/05/07 09:34:47;;;;;;;18.08;12.32;;;;;;;24.93;56.36;100853.13;4963951;28;20050;-80
2023/05/07 09:37:17;;;;;;;19.25;11.27;;;;;;;24.94;56.45;100857.56;4962321;28;20061;-81
2023/05/07 09:39:48;;;;;;;17.33;12.07;;;;;;;24.80;55.47;100855.28;4962453;28;20061;-80
2023/05/07 09:42:25;;;;;;;16.85;11.35;;;;;;;24.91;56.14;100847.13;4979053;28;20046;-81
2023/05/07 09:44:55;;;;;;;15.18;10.90;;;;;;;24.87;54.90;100842.66;4962840;28;20142;-80
2023/05/07 09:47:31;;;;;;;18.42;12.48;;;;;;;24.98;54.60;100851.22;4961415;28;20126;-81
2023/05/07 09:50:03;;;;;;;16.70;10.52;;;;;;;25.01;54.69;100850.47;4963405;28;20057;-80
2023/05/07 09:52:35;;;;;;;13.32;10.50;;;;;;;24.91;54.68;100844.31;4981319;28;20511;-80
2023/05/07 09:55:06;;;;;;;15.52;12.00;;;;;;;24.92;53.29;100840.34;4997501;28;20052;-81
2023/05/07 09:57:34;;;;;;;15.52;11.00;;;;;;;25.01;54.95;100847.66;4997791;28;20046;-80
2023/05/07 10:00:08;;;;;;;16.20;10.60;;;;;;;25.06;54.13;100850.16;4997378;28;20061;-80
2023/05/07 10:02:52;;;;;;;12.75;10.07;;;;;;;25.22;53.77;100850.84;5014976;28;20049;-80
2023/05/07 10:05:28;;;;;;;14.35;10.18;;;;;;;24.99;53.08;100861.22;4997094;28;20050;-80
2023/05/07 10:08:03;;;;;;;14.10;9.98;;;;;;;25.25;53.75;100842.84;4984942;28;20049;-80
2023/05/07 10:10:34;;;;;;;15.60;10.88;;;;;;;25.67;54.12;100846.75;4994526;28;20042;-81
2023/05/07 10:13:09;;;;;;;15.68;11.07;;;;;;;25.74;52.78;100847.66;4993583;28;20062;-81
2023/05/07 10:15:41;;;;;;;13.88;10.82;;;;;;;25.76;51.56;100842.47;4995887;28;20046;-81
2023/05/07 10:18:11;;;;;;;16.13;11.10;;;;;;;25.69;52.59;100839.56;4997082;28;20050;-81
2023/05/07 10:20:45;;;;;;;14.25;10.70;;;;;;;25.67;52.54;100841.13;4980759;28;20049;-81
2023/05/07 10:23:23;;;;;;;14.88;10.98;;;;;;;25.59;52.96;100837.41;4995793;28;20045;-81
2023/05/07 10:25:55;;;;;;;15.15;11.05;;;;;;;25.81;52.39;100834.94;4979550;28;20416;-81
2023/05/07 10:28:31;;;;;;;11.85;9.20;;;;;;;26.01;51.36;100841.22;4996839;28;20042;-80
2023/05/07 10:31:23;;;;;;;14.65;10.60;;;;;;;25.94;52.06;100827.91;4997162;28;20042;-80
2023/05/07 10:33:54;;;;;;;15.48;10.82;;;;;;;26.09;52.51;100833.72;4996254;28;20045;-81
2023/05/07 10:36:25;;;;;;;16.30;11.40;;;;;;;26.05;52.75;100813.22;4996412;28;20034;-81
2023/05/07 10:38:53;;;;;;;15.57;10.98;;;;;;;26.35;52.30;100826.41;4979712;28;20042;-81
2023/05/07 10:41:21;;;;;;;16.55;10.75;;;;;;;26.56;52.39;100823.84;4994017;28;20046;-81
2023/05/07 10:43:51;;;;;;;13.52;10.52;;;;;;;26.70;51.45;100823.19;4996863;28;20037;-81
2023/05/07 10:46:30;;;;;;;13.77;10.38;;;;;;;26.86;51.11;100824.13;4993123;28;20041;-82
2023/05/07 10:49:11;;;;;;;16.23;10.90;;;;;;;26.77;49.99;100828.06;4989958;28;20500;-81
2023/05/07 10:52:21;;;;;;;18.08;11.82;;;;;;;26.65;49.97;100819.94;5010590;28;20045;-81
2023/05/07 10:55:17;;;;;;;15.07;10.48;;;;;;;26.56;50.59;100818.25;4993154;28;20062;-81
2023/05/07 10:58:21;;;;;;;13.13;10.15;;;;;;;26.93;49.88;100813.00;4995410;28;20050;-81
2023/05/07 11:01:54;;;;;;;13.93;9.90;;;;;;;26.90;49.28;100813.72;4999232;28;20054;-81
2023/05/07 11:04:38;;;;;;;12.32;9.38;;;;;;;27.16;49.19;100817.56;5008566;28;20061;-81
2023/05/07 11:07:29;;;;;;;14.77;9.43;;;;;;;27.15;47.30;100801.94;4992339;28;20053;-82
2023/05/07 11:10:04;;;;;;;10.70;9.02;;;;;;;27.44;48.11;100802.94;4992961;28;20046;-81
2023/05/07 11:12:44;;;;;;;13.02;9.20;;;;;;;27.18;48.92;100804.75;4979460;28;20492;-80
2023/05/07 11:15:41;;;;;;;11.90;9.40;;;;;;;26.92;47.23;100794.53;5001934;28;20042;-79
2023/05/07 11:18:23;;;;;;;14.00;10.13;;;;;;;26.98;49.38;100783.75;4992739;28;20038;-81
2023/05/07 11:20:53;;;;;;;15.15;9.55;;;;;;;26.95;47.61;100790.94;5008641;28;20069;-79
2023/05/07 11:23:37;;;;;;;11.68;8.18;;;;;;;27.41;49.27;100791.69;4994615;28;20046;-80
2023/05/07 11:26:50;;;;;;;12.05;7.82;;;;;;;27.40;46.78;100787.25;4999752;28;20052;-80
2023/05/07 11:29:21;;;;;;;10.90;7.55;;;;;;;27.42;47.72;100788.47;5011402;28;20046;-81